sensor_id;sensor_type;location;lat;lon;timestamp;P1;durP1;ratioP1;P2;durP2;ratioP2
6723;SDS011;3399;52.530;13.304;2023-05-07T00:00:18;13.40;;;12.00;;
6723;SDS011;3399;52.530;13.304;2023-05-07T00:02:44;12.27;;;10.97;;
6723;SDS011;3399;52.530;13.304;2023-05-07T00:05:10;12.83;;;11.47;;
6723;SDS011;3399;52.530;13.304;2023-05-07T00:07:36;12.73;;;11.50;;
6723;SDS011;3399;52.530;13.304;2023-05-07T00:10:03;12.33;;;10.53;;
6723;SDS011;3399;52.530;13.304;2023-05-07T00:12:29;11.10;;;10.00;;
6723;SDS011;3399;52.530;13.304;2023-05-07T00:14:58;10.83;;;9.73;;
6723;SDS011;3399;52.530;13.304;2023-05-07T00:17:25;11.17;;;10.07;;
6723;SDS011;3399;52.530;13.304;2023-05-07T00:19:51;11.47;;;10.37;;
6723;SDS011;3399;52.530;13.304;2023-05-07T00:22:16;12.50;;;10.70;;
6723;SDS011;3399;52.530;13.304;2023-05-07T00:24:42;12.60;;;11.30;;
6723;SDS011;3399;52.530;13.304;2023-05-07T00:27:07;11.97;;;10.23;;
6723;SDS011;3399;52.530;13.304;2023-05-07T00:29:33;15.30;;;11.17;;
6723;SDS011;3399;52.530;13.304;2023-05-07T00:31:59;13.13;;;9.90;;
6723;SDS011;3399;52.530;13.304;2023-05-07T00:34:24;12.27;;;10.50;;
6723;SDS011;3399;52.530;13.304;2023-05-07T00:36:50;11.20;;;10.07;;
6723;SDS011;3399;52.530;13.304;2023-05-07T00:39:15;12.10;;;10.83;;
6723;SDS011;3399;52.530;13.304;2023-05-07T00:41:41;11.23;;;10.07;;
6723;SDS011;3399;52.530;13.304;2023-05-07T00:44:06;10.43;;;9.43;;
6723;SDS011;3399;52.530;13.304;2023-05-07T00:46:31;9.60;;;8.80;;
6723;SDS011;3399;52.530;13.304;2023-05-07T00:48:58;10.83;;;8.90;;
6723;SDS011;3399;52.530;13.304;2023-05-07T00:51:25;10.00;;;9.03;;
6723;SDS011;3399;52.530;13.304;2023-05-07T00:53:52;11.20;;;9.00;;
6723;SDS011;3399;52.530;13.304;2023-05-07T00:56:18;10.77;;;9.67;;
6723;SDS011;3399;52.530;13.304;2023-05-07T00:58:46;10.00;;;9.00;;
6723;SDS011;3399;52.530;13.304;2023-05-07T01:01:11;9.77;;;8.50;;
6723;SDS011;3399;52.530;13.304;2023-05-07T01:03:37;9.87;;;8.83;;
6723;SDS011;3399;52.530;13.304;2023-05-07T01:06:03;9.83;;;8.83;;
6723;SDS011;3399;52.530;13.304;2023-05-07T01:08:31;9.67;;;8.77;;
6723;SDS011;3399;52.530;13.304;2023-05-07T01:10:57;11.57;;;9.63;;
6723;SDS011;3399;52.530;13.304;2023-05-07T01:13:24;10.53;;;9.43;;
6723;SDS011;3399;52.530;13.304;2023-05-07T01:15:50;11.40;;;10.23;;
6723;SDS011;3399;52.530;13.304;2023-05-07T01:18:15;11.20;;;9.40;;
6723;SDS011;3399;52.530;13.304;2023-05-07T01:20:41;9.57;;;8.67;;
6723;SDS011;3399;52.530;13.304;2023-05-07T01:23:07;9.83;;;8.93;;
6723;SDS011;3399;52.530;13.304;2023-05-07T01:25:34;9.93;;;8.93;;
6723;SDS011;3399;52.530;13.304;2023-05-07T01:28:00;9.80;;;8.63;;
6723;SDS011;3399;52.530;13.304;2023-05-07T01:30:26;9.30;;;8.47;;
6723;SDS011;3399;52.530;13.304;2023-05-07T01:33:06;9.90;;;9.00;;
6723;SDS011;3399;52.530;13.304;2023-05-07T01:35:36;10.23;;;8.77;;
6723;SDS011;3399;52.530;13.304;2023-05-07T01:38:05;9.70;;;8.80;;
6723;SDS011;3399;52.530;13.304;2023-05-07T01:40:31;8.70;;;7.80;;
6723;SDS011;3399;52.530;13.304;2023-05-07T01:42:57;10.13;;;9.13;;
6723;SDS011;3399;52.530;13.304;2023-05-07T01:45:23;10.67;;;8.33;;
6723;SDS011;3399;52.530;13.304;2023-05-07T01:47:50;9.13;;;8.23;;
6723;SDS011;3399;52.530;13.304;2023-05-07T01:50:18;9.17;;;8.37;;
6723;SDS011;3399;52.530;13.304;2023-05-07T01:52:45;11.60;;;8.80;;
6723;SDS011;3399;52.530;13.304;2023-05-07T01:55:11;12.07;;;8.43;;
6723;SDS011;3399;52.530;13.304;2023-05-07T01:57:36;8.53;;;7.83;;
6723;SDS011;3399;52.530;13.304;2023-05-07T02:00:02;8.33;;;7.63;;
6723;SDS011;3399;52.530;13.304;2023-05-07T02:02:29;11.77;;;8.97;;
6723;SDS011;3399;52.530;13.304;2023-05-07T02:04:55;8.97;;;7.90;;
6723;SDS011;3399;52.530;13.304;2023-05-07T02:07:21;9.53;;;8.37;;
6723;SDS011;3399;52.530;13.304;2023-05-07T02:09:47;10.67;;;9.57;;
6723;SDS011;3399;52.530;13.304;2023-05-07T02:12:12;10.07;;;9.17;;
6723;SDS011;3399;52.530;13.304;2023-05-07T02:14:38;10.93;;;9.10;;
6723;SDS011;3399;52.530;13.304;2023-05-07T02:17:03;10.57;;;9.67;;
6723;SDS011;3399;52.530;13.304;2023-05-07T02:19:29;10.03;;;9.00;;
6723;SDS011;3399;52.530;13.304;2023-05-07T02:21:54;10.13;;;9.13;;
6723;SDS011;3399;52.530;13.304;2023-05-07T02:24:20;11.70;;;10.53;;
6723;SDS011;3399;52.530;13.304;2023-05-07T02:26:46;9.77;;;8.77;;
6723;SDS011;3399;52.530;13.304;2023-05-07T02:29:11;11.43;;;10.23;;
6723;SDS011;3399;52.530;13.304;2023-05-07T02:31:37;11.00;;;9.87;;
6723;SDS011;3399;52.530;13.304;2023-05-07T02:34:02;11.37;;;9.80;;
6723;SDS011;3399;52.530;13.304;2023-05-07T02:36:28;10.67;;;9.57;;
6723;SDS011;3399;52.530;13.304;2023-05-07T02:38:54;12.97;;;10.20;;
6723;SDS011;3399;52.530;13.304;2023-05-07T02:41:20;12.67;;;10.43;;
6723;SDS011;3399;52.530;13.304;2023-05-07T02:43:45;9.63;;;8.73;;
6723;SDS011;3399;52.530;13.304;2023-05-07T02:46:11;11.20;;;10.17;;
6723;SDS011;3399;52.530;13.304;2023-05-07T02:48:36;10.93;;;9.93;;
6723;SDS011;3399;52.530;13.304;2023-05-07T02:51:02;10.30;;;8.97;;
6723;SDS011;3399;52.530;13.304;2023-05-07T02:53:28;10.50;;;9.43;;
6723;SDS011;3399;52.530;13.304;2023-05-07T02:55:58;10.57;;;9.47;;
6723;SDS011;3399;52.530;13.304;2023-05-07T02:58:24;11.27;;;10.17;;
6723;SDS011;3399;52.530;13.304;2023-05-07T03:00:49;10.53;;;9.40;;
6723;SDS011;3399;52.530;13.304;2023-05-07T03:03:15;9.90;;;8.90;;
6723;SDS011;3399;52.530;13.304;2023-05-07T03:05:41;9.40;;;8.23;;
6723;SDS011;3399;52.530;13.304;2023-05-07T03:08:06;9.40;;;8.43;;
6723;SDS011;3399;52.530;13.304;2023-05-07T03:10:32;9.73;;;8.73;;
6723;SDS011;3399;52.530;13.304;2023-05-07T03:12:58;9.27;;;8.47;;
6723;SDS011;3399;52.530;13.304;2023-05-07T03:15:24;9.20;;;8.37;;
6723;SDS011;3399;52.530;13.304;2023-05-07T03:17:49;9.70;;;8.77;;
6723;SDS011;3399;52.530;13.304;2023-05-07T03:20:15;8.90;;;8.00;;
6723;SDS011;3399;52.530;13.304;2023-05-07T03:22:40;8.83;;;7.93;;
6723;SDS011;3399;52.530;13.304;2023-05-07T03:25:06;9.20;;;8.30;;
6723;SDS011;3399;52.530;13.304;2023-05-07T03:27:32;9.70;;;8.70;;
6723;SDS011;3399;52.530;13.304;2023-05-07T03:29:57;9.70;;;8.63;;
6723;SDS011;3399;52.530;13.304;2023-05-07T03:32:23;10.20;;;9.27;;
6723;SDS011;3399;52.530;13.304;2023-05-07T03:34:48;8.97;;;8.07;;
6723;SDS011;3399;52.530;13.304;2023-05-07T03:37:14;9.07;;;8.17;;
6723;SDS011;3399;52.530;13.304;2023-05-07T03:39:39;10.87;;;9.07;;
6723;SDS011;3399;52.530;13.304;2023-05-07T03:42:05;9.07;;;8.23;;
6723;SDS011;3399;52.530;13.304;2023-05-07T03:44:30;8.90;;;8.07;;
6723;SDS011;3399;52.530;13.304;2023-05-07T03:46:56;9.97;;;8.10;;
6723;SDS011;3399;52.530;13.304;2023-05-07T03:49:21;10.40;;;7.73;;
6723;SDS011;3399;52.530;13.304;2023-05-07T03:51:47;8.07;;;7.27;;
6723;SDS011;3399;52.530;13.304;2023-05-07T03:54:12;9.60;;;8.70;;
6723;SDS011;3399;52.530;13.304;2023-05-07T03:56:38;9.03;;;8.20;;
6723;SDS011;3399;52.530;13.304;2023-05-07T03:59:03;10.40;;;9.37;;
6723;SDS011;3399;52.530;13.304;2023-05-07T04:01:29;10.83;;;9.43;;
6723;SDS011;3399;52.530;13.304;2023-05-07T04:03:55;10.87;;;8.83;;
6723;SDS011;3399;52.530;13.304;2023-05-07T04:06:20;8.83;;;8.00;;
6723;SDS011;3399;52.530;13.304;2023-05-07T04:08:46;9.53;;;8.00;;
6723;SDS011;3399;52.530;13.304;2023-05-07T04:11:11;10.17;;;8.33;;
6723;SDS011;3399;52.530;13.304;2023-05-07T04:13:37;10.37;;;9.07;;
6723;SDS011;3399;52.530;13.304;2023-05-07T04:16:03;10.50;;;8.43;;
6723;SDS011;3399;52.530;13.304;2023-05-07T04:18:29;9.00;;;8.10;;
6723;SDS011;3399;52.530;13.304;2023-05-07T04:20:55;8.83;;;7.50;;
6723;SDS011;3399;52.530;13.304;2023-05-07T04:23:20;9.37;;;8.47;;
6723;SDS011;3399;52.530;13.304;2023-05-07T04:25:46;16.43;;;8.93;;
6723;SDS011;3399;52.530;13.304;2023-05-07T04:28:12;7.97;;;7.17;;
6723;SDS011;3399;52.530;13.304;2023-05-07T04:30:37;8.90;;;8.00;;
6723;SDS011;3399;52.530;13.304;2023-05-07T04:33:03;8.40;;;7.63;;
6723;SDS011;3399;52.530;13.304;2023-05-07T04:35:29;9.27;;;8.17;;
6723;SDS011;3399;52.530;13.304;2023-05-07T04:37:54;10.30;;;8.37;;
6723;SDS011;3399;52.530;13.304;2023-05-07T04:40:20;7.77;;;6.97;;
6723;SDS011;3399;52.530;13.304;2023-05-07T04:42:45;8.87;;;6.97;;
6723;SDS011;3399;52.530;13.304;2023-05-07T04:45:11;8.33;;;7.27;;
6723;SDS011;3399;52.530;13.304;2023-05-07T04:47:37;9.37;;;7.63;;
6723;SDS011;3399;52.530;13.304;2023-05-07T04:50:03;8.53;;;7.63;;
6723;SDS011;3399;52.530;13.304;2023-05-07T04:52:29;9.10;;;8.20;;
6723;SDS011;3399;52.530;13.304;2023-05-07T04:54:56;7.47;;;6.77;;
6723;SDS011;3399;52.530;13.304;2023-05-07T04:57:23;8.43;;;6.77;;
6723;SDS011;3399;52.530;13.304;2023-05-07T04:59:49;9.03;;;7.63;;
6723;SDS011;3399;52.530;13.304;2023-05-07T05:02:15;8.37;;;6.47;;
6723;SDS011;3399;52.530;13.304;2023-05-07T05:04:40;7.90;;;7.20;;
6723;SDS011;3399;52.530;13.304;2023-05-07T05:07:06;9.53;;;7.27;;
6723;SDS011;3399;52.530;13.304;2023-05-07T05:09:32;7.13;;;6.57;;
6723;SDS011;3399;52.530;13.304;2023-05-07T05:11:57;7.70;;;6.90;;
6723;SDS011;3399;52.530;13.304;2023-05-07T05:14:23;7.33;;;6.63;;
6723;SDS011;3399;52.530;13.304;2023-05-07T05:16:49;7.77;;;6.97;;
6723;SDS011;3399;52.530;13.304;2023-05-07T05:19:14;6.60;;;6.00;;
6723;SDS011;3399;52.530;13.304;2023-05-07T05:21:40;10.17;;;5.57;;
6723;SDS011;3399;52.530;13.304;2023-05-07T05:24:06;6.17;;;5.60;;
6723;SDS011;3399;52.530;13.304;2023-05-07T05:26:31;7.50;;;6.87;;
6723;SDS011;3399;52.530;13.304;2023-05-07T05:28:57;6.90;;;6.30;;
6723;SDS011;3399;52.530;13.304;2023-05-07T05:31:22;5.70;;;5.10;;
6723;SDS011;3399;52.530;13.304;2023-05-07T05:33:48;6.67;;;5.97;;
6723;SDS011;3399;52.530;13.304;2023-05-07T05:36:13;6.57;;;5.90;;
6723;SDS011;3399;52.530;13.304;2023-05-07T05:38:39;6.70;;;6.00;;
6723;SDS011;3399;52.530;13.304;2023-05-07T05:41:05;8.03;;;6.03;;
6723;SDS011;3399;52.530;13.304;2023-05-07T05:43:30;6.33;;;5.73;;
6723;SDS011;3399;52.530;13.304;2023-05-07T05:45:56;7.30;;;6.17;;
6723;SDS011;3399;52.530;13.304;2023-05-07T05:48:22;6.97;;;5.60;;
6723;SDS011;3399;52.530;13.304;2023-05-07T05:50:48;7.30;;;6.37;;
6723;SDS011;3399;52.530;13.304;2023-05-07T05:53:13;6.57;;;5.97;;
6723;SDS011;3399;52.530;13.304;2023-05-07T05:55:39;6.63;;;5.73;;
6723;SDS011;3399;52.530;13.304;2023-05-07T05:58:04;6.60;;;6.00;;
6723;SDS011;3399;52.530;13.304;2023-05-07T06:00:30;6.70;;;6.00;;
6723;SDS011;3399;52.530;13.304;2023-05-07T06:02:55;6.43;;;5.83;;
6723;SDS011;3399;52.530;13.304;2023-05-07T06:05:21;5.87;;;5.30;;
6723;SDS011;3399;52.530;13.304;2023-05-07T06:07:46;6.17;;;5.67;;
6723;SDS011;3399;52.530;13.304;2023-05-07T06:10:12;6.50;;;5.90;;
6723;SDS011;3399;52.530;13.304;2023-05-07T06:12:37;7.07;;;5.70;;
6723;SDS011;3399;52.530;13.304;2023-05-07T06:15:03;7.03;;;6.33;;
6723;SDS011;3399;52.530;13.304;2023-05-07T06:17:29;6.03;;;5.27;;
6723;SDS011;3399;52.530;13.304;2023-05-07T06:19:55;6.93;;;6.23;;
6723;SDS011;3399;52.530;13.304;2023-05-07T06:22:21;9.13;;;6.83;;
6723;SDS011;3399;52.530;13.304;2023-05-07T06:24:46;9.53;;;6.57;;
6723;SDS011;3399;52.530;13.304;2023-05-07T06:27:12;8.20;;;7.40;;
6723;SDS011;3399;52.530;13.304;2023-05-07T06:29:37;7.17;;;6.47;;
6723;SDS011;3399;52.530;13.304;2023-05-07T06:32:10;7.23;;;6.53;;
6723;SDS011;3399;52.530;13.304;2023-05-07T06:34:36;10.17;;;6.07;;
6723;SDS011;3399;52.530;13.304;2023-05-07T06:37:02;9.17;;;6.97;;
6723;SDS011;3399;52.530;13.304;2023-05-07T06:39:28;9.43;;;6.87;;
6723;SDS011;3399;52.530;13.304;2023-05-07T06:41:53;7.63;;;6.73;;
6723;SDS011;3399;52.530;13.304;2023-05-07T06:44:19;7.17;;;6.47;;
6723;SDS011;3399;52.530;13.304;2023-05-07T06:46:44;8.07;;;7.27;;
6723;SDS011;3399;52.530;13.304;2023-05-07T06:49:10;7.27;;;6.57;;
6723;SDS011;3399;52.530;13.304;2023-05-07T06:51:37;8.13;;;6.40;;
6723;SDS011;3399;52.530;13.304;2023-05-07T06:54:02;7.80;;;6.80;;
6723;SDS011;3399;52.530;13.304;2023-05-07T06:56:29;6.77;;;6.03;;
6723;SDS011;3399;52.530;13.304;2023-05-07T06:58:55;6.73;;;6.00;;
6723;SDS011;3399;52.530;13.304;2023-05-07T07:01:20;5.93;;;5.43;;
6723;SDS011;3399;52.530;13.304;2023-05-07T07:03:46;6.77;;;6.13;;
6723;SDS011;3399;52.530;13.304;2023-05-07T07:06:11;6.93;;;6.03;;
6723;SDS011;3399;52.530;13.304;2023-05-07T07:08:37;6.40;;;5.73;;
6723;SDS011;3399;52.530;13.304;2023-05-07T07:11:03;7.13;;;6.43;;
6723;SDS011;3399;52.530;13.304;2023-05-07T07:13:29;6.27;;;5.57;;
6723;SDS011;3399;52.530;13.304;2023-05-07T07:15:55;7.00;;;5.47;;
6723;SDS011;3399;52.530;13.304;2023-05-07T07:18:20;8.37;;;6.33;;
6723;SDS011;3399;52.530;13.304;2023-05-07T07:20:46;5.50;;;5.00;;
6723;SDS011;3399;52.530;13.304;2023-05-07T07:23:11;6.77;;;4.87;;
6723;SDS011;3399;52.530;13.304;2023-05-07T07:25:37;5.63;;;4.47;;
6723;SDS011;3399;52.530;13.304;2023-05-07T07:28:02;5.73;;;5.13;;
6723;SDS011;3399;52.530;13.304;2023-05-07T07:30:28;7.37;;;4.97;;
6723;SDS011;3399;52.530;13.304;2023-05-07T07:32:53;6.07;;;5.47;;
6723;SDS011;3399;52.530;13.304;2023-05-07T07:35:20;6.23;;;4.47;;
6723;SDS011;3399;52.530;13.304;2023-05-07T07:37:45;6.97;;;5.60;;
6723;SDS011;3399;52.530;13.304;2023-05-07T07:40:12;5.33;;;4.87;;
6723;SDS011;3399;52.530;13.304;2023-05-07T07:42:37;5.50;;;4.90;;
6723;SDS011;3399;52.530;13.304;2023-05-07T07:45:03;4.77;;;4.37;;
6723;SDS011;3399;52.530;13.304;2023-05-07T07:47:29;4.20;;;3.73;;
6723;SDS011;3399;52.530;13.304;2023-05-07T07:49:54;4.27;;;3.87;;
6723;SDS011;3399;52.530;13.304;2023-05-07T07:52:20;6.10;;;4.30;;
6723;SDS011;3399;52.530;13.304;2023-05-07T07:54:45;6.27;;;3.70;;
6723;SDS011;3399;52.530;13.304;2023-05-07T07:57:11;5.30;;;3.97;;
6723;SDS011;3399;52.530;13.304;2023-05-07T07:59:36;4.97;;;4.03;;
6723;SDS011;3399;52.530;13.304;2023-05-07T08:02:02;3.77;;;3.47;;
6723;SDS011;3399;52.530;13.304;2023-05-07T08:04:27;4.60;;;3.50;;
6723;SDS011;3399;52.530;13.304;2023-05-07T08:06:53;4.40;;;3.90;;
6723;SDS011;3399;52.530;13.304;2023-05-07T08:09:19;4.20;;;3.80;;
6723;SDS011;3399;52.530;13.304;2023-05-07T08:11:45;4.03;;;3.73;;
6723;SDS011;3399;52.530;13.304;2023-05-07T08:14:10;3.67;;;3.37;;
6723;SDS011;3399;52.530;13.304;2023-05-07T08:16:36;3.37;;;3.00;;
6723;SDS011;3399;52.530;13.304;2023-05-07T08:19:02;5.17;;;3.83;;
6723;SDS011;3399;52.530;13.304;2023-05-07T08:21:27;3.63;;;3.33;;
6723;SDS011;3399;52.530;13.304;2023-05-07T08:23:53;3.40;;;3.10;;
6723;SDS011;3399;52.530;13.304;2023-05-07T08:26:18;3.33;;;3.03;;
6723;SDS011;3399;52.530;13.304;2023-05-07T08:28:43;5.23;;;3.77;;
6723;SDS011;3399;52.530;13.304;2023-05-07T08:31:09;4.50;;;3.67;;
6723;SDS011;3399;52.530;13.304;2023-05-07T08:33:34;4.37;;;3.83;;
6723;SDS011;3399;52.530;13.304;2023-05-07T08:36:00;3.57;;;3.30;;
6723;SDS011;3399;52.530;13.304;2023-05-07T08:38:25;2.77;;;2.50;;
6723;SDS011;3399;52.530;13.304;2023-05-07T08:40:51;3.73;;;2.63;;
6723;SDS011;3399;52.530;13.304;2023-05-07T08:43:17;3.77;;;2.87;;
6723;SDS011;3399;52.530;13.304;2023-05-07T08:45:45;3.20;;;2.90;;
6723;SDS011;3399;52.530;13.304;2023-05-07T08:48:15;4.00;;;3.00;;
6723;SDS011;3399;52.530;13.304;2023-05-07T08:50:41;3.30;;;3.00;;
6723;SDS011;3399;52.530;13.304;2023-05-07T08:53:07;3.17;;;2.93;;
6723;SDS011;3399;52.530;13.304;2023-05-07T08:55:33;3.13;;;2.70;;
6723;SDS011;3399;52.530;13.304;2023-05-07T08:57:58;5.10;;;2.90;;
6723;SDS011;3399;52.530;13.304;2023-05-07T09:00:24;4.70;;;2.87;;
6723;SDS011;3399;52.530;13.304;2023-05-07T09:02:50;3.33;;;3.03;;
6723;SDS011;3399;52.530;13.304;2023-05-07T09:05:17;3.17;;;2.87;;
6723;SDS011;3399;52.530;13.304;2023-05-07T09:07:42;3.40;;;3.10;;
6723;SDS011;3399;52.530;13.304;2023-05-07T09:10:08;3.43;;;3.13;;
6723;SDS011;3399;52.530;13.304;2023-05-07T09:12:33;3.10;;;2.90;;
6723;SDS011;3399;52.530;13.304;2023-05-07T09:15:01;3.00;;;2.70;;
6723;SDS011;3399;52.530;13.304;2023-05-07T09:17:27;3.30;;;3.00;;
6723;SDS011;3399;52.530;13.304;2023-05-07T09:19:53;3.70;;;3.10;;
6723;SDS011;3399;52.530;13.304;2023-05-07T09:22:18;3.23;;;3.00;;
6723;SDS011;3399;52.530;13.304;2023-05-07T09:24:48;3.80;;;2.77;;
6723;SDS011;3399;52.530;13.304;2023-05-07T09:27:14;4.97;;;3.50;;
6723;SDS011;3399;52.530;13.304;2023-05-07T09:29:40;3.27;;;2.97;;
6723;SDS011;3399;52.530;13.304;2023-05-07T09:32:06;2.97;;;2.77;;
6723;SDS011;3399;52.530;13.304;2023-05-07T09:34:33;5.67;;;2.97;;
6723;SDS011;3399;52.530;13.304;2023-05-07T09:37:03;3.07;;;2.80;;
6723;SDS011;3399;52.530;13.304;2023-05-07T09:39:39;2.97;;;2.73;;
6723;SDS011;3399;52.530;13.304;2023-05-07T09:42:08;3.07;;;2.83;;
6723;SDS011;3399;52.530;13.304;2023-05-07T09:44:34;3.77;;;2.87;;
6723;SDS011;3399;52.530;13.304;2023-05-07T09:47:00;4.17;;;3.07;;
6723;SDS011;3399;52.530;13.304;2023-05-07T09:49:29;4.90;;;2.63;;
6723;SDS011;3399;52.530;13.304;2023-05-07T09:51:58;3.00;;;2.80;;
6723;SDS011;3399;52.530;13.304;2023-05-07T09:54:25;3.07;;;2.70;;
6723;SDS011;3399;52.530;13.304;2023-05-07T09:56:52;3.50;;;2.67;;
6723;SDS011;3399;52.530;13.304;2023-05-07T09:59:21;3.20;;;3.00;;
6723;SDS011;3399;52.530;13.304;2023-05-07T10:01:47;4.37;;;3.33;;
6723;SDS011;3399;52.530;13.304;2023-05-07T10:04:14;3.17;;;2.50;;
6723;SDS011;3399;52.530;13.304;2023-05-07T10:06:41;2.13;;;2.03;;
6723;SDS011;3399;52.530;13.304;2023-05-07T10:09:08;3.73;;;3.00;;
6723;SDS011;3399;52.530;13.304;2023-05-07T10:11:35;3.27;;;2.60;;
6723;SDS011;3399;52.530;13.304;2023-05-07T10:14:02;2.80;;;2.57;;
6723;SDS011;3399;52.530;13.304;2023-05-07T10:16:31;2.97;;;2.77;;
6723;SDS011;3399;52.530;13.304;2023-05-07T10:19:01;2.50;;;2.30;;
6723;SDS011;3399;52.530;13.304;2023-05-07T10:21:28;4.00;;;2.70;;
6723;SDS011;3399;52.530;13.304;2023-05-07T10:23:59;5.33;;;2.40;;
6723;SDS011;3399;52.530;13.304;2023-05-07T10:26:31;4.00;;;2.80;;
6723;SDS011;3399;52.530;13.304;2023-05-07T10:28:59;2.40;;;2.17;;
6723;SDS011;3399;52.530;13.304;2023-05-07T10:34:30;2.30;;;2.10;;
6723;SDS011;3399;52.530;13.304;2023-05-07T10:37:00;2.43;;;1.97;;
6723;SDS011;3399;52.530;13.304;2023-05-07T10:39:28;2.67;;;2.33;;
6723;SDS011;3399;52.530;13.304;2023-05-07T10:41:54;3.10;;;1.77;;
6723;SDS011;3399;52.530;13.304;2023-05-07T10:44:26;2.97;;;1.73;;
6723;SDS011;3399;52.530;13.304;2023-05-07T10:47:09;1.73;;;1.63;;
6723;SDS011;3399;52.530;13.304;2023-05-07T10:49:36;2.20;;;2.00;;
6723;SDS011;3399;52.530;13.304;2023-05-07T10:52:22;1.83;;;1.73;;
6723;SDS011;3399;52.530;13.304;2023-05-07T10:55:19;2.70;;;1.63;;
6723;SDS011;3399;52.530;13.304;2023-05-07T10:57:42;1.60;;;1.50;;
6723;SDS011;3399;52.530;13.304;2023-05-07T11:05:29;1.87;;;1.77;;
6723;SDS011;3399;52.530;13.304;2023-05-07T11:07:56;2.43;;;1.67;;
6723;SDS011;3399;52.530;13.304;2023-05-07T11:10:23;1.70;;;1.60;;
6723;SDS011;3399;52.530;13.304;2023-05-07T11:13:08;2.83;;;2.20;;
6723;SDS011;3399;52.530;13.304;2023-05-07T11:15:35;1.77;;;1.67;;
6723;SDS011;3399;52.530;13.304;2023-05-07T11:18:01;1.80;;;1.70;;
6723;SDS011;3399;52.530;13.304;2023-05-07T11:28:39;1.57;;;1.47;;
6723;SDS011;3399;52.530;13.304;2023-05-07T11:31:06;2.07;;;1.97;;
6723;SDS011;3399;52.530;13.304;2023-05-07T11:33:32;1.70;;;1.60;;
6723;SDS011;3399;52.530;13.304;2023-05-07T11:35:59;1.50;;;1.40;;
6723;SDS011;3399;52.530;13.304;2023-05-07T11:38:26;1.80;;;1.70;;
6723;SDS011;3399;52.530;13.304;2023-05-07T11:40:54;2.40;;;2.20;;
6723;SDS011;3399;52.530;13.304;2023-05-07T11:43:25;3.13;;;2.30;;
6723;SDS011;3399;52.530;13.304;2023-05-07T11:45:51;2.37;;;2.10;;
6723;SDS011;3399;52.530;13.304;2023-05-07T11:48:16;2.30;;;1.93;;
6723;SDS011;3399;52.530;13.304;2023-05-07T11:50:50;1.87;;;1.77;;
6723;SDS011;3399;52.530;13.304;2023-05-07T11:53:24;2.33;;;1.77;;
6723;SDS011;3399;52.530;13.304;2023-05-07T11:55:57;2.07;;;1.97;;
6723;SDS011;3399;52.530;13.304;2023-05-07T11:58:23;2.23;;;2.07;;
6723;SDS011;3399;52.530;13.304;2023-05-07T12:00:50;3.90;;;2.23;;
6723;SDS011;3399;52.530;13.304;2023-05-07T12:03:16;4.03;;;2.23;;
6723;SDS011;3399;52.530;13.304;2023-05-07T12:05:43;2.10;;;1.87;;
6723;SDS011;3399;52.530;13.304;2023-05-07T12:08:13;2.00;;;1.60;;
6723;SDS011;3399;52.530;13.304;2023-05-07T12:10:43;2.23;;;2.00;;
6723;SDS011;3399;52.530;13.304;2023-05-07T12:13:18;1.63;;;1.53;;
6723;SDS011;3399;52.530;13.304;2023-05-07T12:15:45;2.20;;;2.00;;
6723;SDS011;3399;52.530;13.304;2023-05-07T12:18:11;4.50;;;2.17;;
6723;SDS011;3399;52.530;13.304;2023-05-07T12:20:38;3.30;;;1.60;;
6723;SDS011;3399;52.530;13.304;2023-05-07T12:23:04;4.17;;;3.00;;
6723;SDS011;3399;52.530;13.304;2023-05-07T12:25:31;2.00;;;1.80;;
6723;SDS011;3399;52.530;13.304;2023-05-07T12:27:57;1.67;;;1.53;;
6723;SDS011;3399;52.530;13.304;2023-05-07T12:30:24;1.70;;;1.60;;
6723;SDS011;3399;52.530;13.304;2023-05-07T12:32:53;1.93;;;1.83;;
6723;SDS011;3399;52.530;13.304;2023-05-07T12:35:39;1.93;;;1.83;;
6723;SDS011;3399;52.530;13.304;2023-05-07T12:38:09;2.43;;;1.70;;
6723;SDS011;3399;52.530;13.304;2023-05-07T12:40:38;1.97;;;1.87;;
6723;SDS011;3399;52.530;13.304;2023-05-07T12:43:20;2.90;;;1.97;;
6723;SDS011;3399;52.530;13.304;2023-05-07T12:45:50;1.67;;;1.57;;
6723;SDS011;3399;52.530;13.304;2023-05-07T12:48:19;1.83;;;1.73;;
6723;SDS011;3399;52.530;13.304;2023-05-07T12:50:45;1.60;;;1.50;;
6723;SDS011;3399;52.530;13.304;2023-05-07T12:53:13;3.17;;;2.13;;
6723;SDS011;3399;52.530;13.304;2023-05-07T12:55:43;1.80;;;1.70;;
6723;SDS011;3399;52.530;13.304;2023-05-07T12:58:15;1.90;;;1.80;;
6723;SDS011;3399;52.530;13.304;2023-05-07T13:00:41;2.60;;;1.97;;
6723;SDS011;3399;52.530;13.304;2023-05-07T13:03:08;2.90;;;1.80;;
6723;SDS011;3399;52.530;13.304;2023-05-07T13:05:34;2.37;;;2.17;;
6723;SDS011;3399;52.530;13.304;2023-05-07T13:08:00;1.97;;;1.80;;
6723;SDS011;3399;52.530;13.304;2023-05-07T13:10:26;3.97;;;1.50;;
6723;SDS011;3399;52.530;13.304;2023-05-07T13:12:52;1.57;;;1.47;;
6723;SDS011;3399;52.530;13.304;2023-05-07T13:15:18;1.77;;;1.67;;
6723;SDS011;3399;52.530;13.304;2023-05-07T13:17:43;1.90;;;1.50;;
6723;SDS011;3399;52.530;13.304;2023-05-07T13:20:09;1.30;;;1.20;;
6723;SDS011;3399;52.530;13.304;2023-05-07T13:22:36;2.03;;;1.30;;
6723;SDS011;3399;52.530;13.304;2023-05-07T13:25:02;1.57;;;1.47;;
6723;SDS011;3399;52.530;13.304;2023-05-07T13:27:27;1.70;;;1.50;;
6723;SDS011;3399;52.530;13.304;2023-05-07T13:29:55;2.50;;;1.90;;
6723;SDS011;3399;52.530;13.304;2023-05-07T13:32:21;2.20;;;1.70;;
6723;SDS011;3399;52.530;13.304;2023-05-07T13:34:46;2.13;;;1.97;;
6723;SDS011;3399;52.530;13.304;2023-05-07T13:37:12;2.57;;;1.70;;
6723;SDS011;3399;52.530;13.304;2023-05-07T13:39:37;2.17;;;1.60;;
6723;SDS011;3399;52.530;13.304;2023-05-07T13:42:03;1.80;;;1.70;;
6723;SDS011;3399;52.530;13.304;2023-05-07T13:44:28;2.47;;;2.27;;
6723;SDS011;3399;52.530;13.304;2023-05-07T13:46:53;1.73;;;1.63;;
6723;SDS011;3399;52.530;13.304;2023-05-07T13:49:19;1.87;;;1.77;;
6723;SDS011;3399;52.530;13.304;2023-05-07T13:51:44;1.73;;;1.63;;
6723;SDS011;3399;52.530;13.304;2023-05-07T13:54:10;2.00;;;1.87;;
6723;SDS011;3399;52.530;13.304;2023-05-07T13:56:36;2.83;;;2.23;;
6723;SDS011;3399;52.530;13.304;2023-05-07T13:59:01;6.27;;;2.90;;
6723;SDS011;3399;52.530;13.304;2023-05-07T14:01:27;2.20;;;2.00;;
6723;SDS011;3399;52.530;13.304;2023-05-07T14:03:52;1.10;;;1.10;;
6723;SDS011;3399;52.530;13.304;2023-05-07T14:06:18;2.23;;;2.03;;
6723;SDS011;3399;52.530;13.304;2023-05-07T14:08:43;1.67;;;1.57;;
6723;SDS011;3399;52.530;13.304;2023-05-07T14:11:09;2.33;;;2.20;;
6723;SDS011;3399;52.530;13.304;2023-05-07T14:13:34;4.83;;;2.30;;
6723;SDS011;3399;52.530;13.304;2023-05-07T14:16:00;1.57;;;1.47;;
6723;SDS011;3399;52.530;13.304;2023-05-07T14:18:25;2.07;;;1.87;;
6723;SDS011;3399;52.530;13.304;2023-05-07T14:20:53;2.00;;;1.90;;
6723;SDS011;3399;52.530;13.304;2023-05-07T14:23:19;5.23;;;2.53;;
6723;SDS011;3399;52.530;13.304;2023-05-07T14:25:47;4.23;;;2.30;;
6723;SDS011;3399;52.530;13.304;2023-05-07T14:28:13;3.60;;;2.33;;
6723;SDS011;3399;52.530;13.304;2023-05-07T14:30:39;2.63;;;2.43;;
6723;SDS011;3399;52.530;13.304;2023-05-07T14:33:04;2.00;;;1.80;;
6723;SDS011;3399;52.530;13.304;2023-05-07T14:35:30;1.70;;;1.60;;
6723;SDS011;3399;52.530;13.304;2023-05-07T14:37:55;5.33;;;2.90;;
6723;SDS011;3399;52.530;13.304;2023-05-07T14:40:21;2.80;;;2.23;;
6723;SDS011;3399;52.530;13.304;2023-05-07T14:42:46;2.40;;;2.20;;
6723;SDS011;3399;52.530;13.304;2023-05-07T14:45:12;2.60;;;2.40;;
6723;SDS011;3399;52.530;13.304;2023-05-07T14:47:37;3.77;;;2.70;;
6723;SDS011;3399;52.530;13.304;2023-05-07T14:50:03;4.47;;;1.93;;
6723;SDS011;3399;52.530;13.304;2023-05-07T14:52:29;2.40;;;1.90;;
6723;SDS011;3399;52.530;13.304;2023-05-07T14:54:54;3.37;;;2.20;;
6723;SDS011;3399;52.530;13.304;2023-05-07T14:57:20;1.80;;;1.67;;
6723;SDS011;3399;52.530;13.304;2023-05-07T14:59:45;3.03;;;1.40;;
6723;SDS011;3399;52.530;13.304;2023-05-07T15:02:12;5.60;;;1.67;;
6723;SDS011;3399;52.530;13.304;2023-05-07T15:04:38;4.20;;;1.80;;
6723;SDS011;3399;52.530;13.304;2023-05-07T15:07:10;2.33;;;1.53;;
6723;SDS011;3399;52.530;13.304;2023-05-07T15:09:36;2.83;;;1.80;;